sensor_id;sensor_type;location;lat;lon;timestamp;P1;durP1;ratioP1;P2;durP2;ratioP2
1509;SDS011;746;48.688;9.428;2022-08-04T00:01:16;3.20;;;3.00;;
1509;SDS011;746;48.688;9.428;2022-08-04T00:03:47;3.70;;;3.40;;
1509;SDS011;746;48.688;9.428;2022-08-04T00:06:16;3.27;;;3.03;;
1509;SDS011;746;48.688;9.428;2022-08-04T00:08:43;2.70;;;2.60;;
1509;SDS011;746;48.688;9.428;2022-08-04T00:11:07;3.20;;;3.00;;
1509;SDS011;746;48.688;9.428;2022-08-04T00:13:36;5.37;;;3.10;;
1509;SDS011;746;48.688;9.428;2022-08-04T00:16:19;3.00;;;2.90;;
1509;SDS011;746;48.688;9.428;2022-08-04T00:18:54;4.67;;;3.00;;
1509;SDS011;746;48.688;9.428;2022-08-04T00:21:17;3.87;;;3.20;;
1509;SDS011;746;48.688;9.428;2022-08-04T00:23:43;3.20;;;3.00;;
1509;SDS011;746;48.688;9.428;2022-08-04T00:26:25;3.60;;;3.30;;
1509;SDS011;746;48.688;9.428;2022-08-04T00:28:46;3.70;;;3.33;;
1509;SDS011;746;48.688;9.428;2022-08-04T00:31:09;2.83;;;2.73;;
1509;SDS011;746;48.688;9.428;2022-08-04T00:33:34;5.27;;;3.20;;
1509;SDS011;746;48.688;9.428;2022-08-04T00:35:58;4.63;;;3.23;;
1509;SDS011;746;48.688;9.428;2022-08-04T00:38:21;4.03;;;3.30;;
1509;SDS011;746;48.688;9.428;2022-08-04T00:40:46;4.70;;;3.50;;
1509;SDS011;746;48.688;9.428;2022-08-04T00:43:12;4.33;;;3.47;;
1509;SDS011;746;48.688;9.428;2022-08-04T00:45:46;3.10;;;2.90;;
1509;SDS011;746;48.688;9.428;2022-08-04T00:48:41;4.43;;;3.27;;
1509;SDS011;746;48.688;9.428;2022-08-04T00:51:17;3.50;;;3.20;;
1509;SDS011;746;48.688;9.428;2022-08-04T00:53:49;3.60;;;3.30;;
1509;SDS011;746;48.688;9.428;2022-08-04T00:56:21;3.43;;;3.10;;
1509;SDS011;746;48.688;9.428;2022-08-04T00:58:58;5.20;;;3.23;;
1509;SDS011;746;48.688;9.428;2022-08-04T01:01:30;3.53;;;3.33;;
1509;SDS011;746;48.688;9.428;2022-08-04T01:04:01;4.53;;;3.20;;
1509;SDS011;746;48.688;9.428;2022-08-04T01:06:30;3.27;;;2.97;;
1509;SDS011;746;48.688;9.428;2022-08-04T01:08:59;3.30;;;3.07;;
1509;SDS011;746;48.688;9.428;2022-08-04T01:11:30;3.77;;;3.57;;
1509;SDS011;746;48.688;9.428;2022-08-04T01:14:21;3.80;;;3.23;;
1509;SDS011;746;48.688;9.428;2022-08-04T01:17:08;4.37;;;3.20;;
1509;SDS011;746;48.688;9.428;2022-08-04T01:19:42;5.10;;;3.60;;
1509;SDS011;746;48.688;9.428;2022-08-04T01:22:33;3.50;;;3.20;;
1509;SDS011;746;48.688;9.428;2022-08-04T01:25:18;3.50;;;3.20;;
1509;SDS011;746;48.688;9.428;2022-08-04T01:28:05;3.50;;;3.20;;
1509;SDS011;746;48.688;9.428;2022-08-04T01:30:41;3.90;;;3.47;;
1509;SDS011;746;48.688;9.428;2022-08-04T01:33:04;3.40;;;3.10;;
1509;SDS011;746;48.688;9.428;2022-08-04T01:35:32;4.70;;;3.33;;
1509;SDS011;746;48.688;9.428;2022-08-04T01:38:10;3.40;;;3.17;;
1509;SDS011;746;48.688;9.428;2022-08-04T01:40:41;3.73;;;3.20;;
1509;SDS011;746;48.688;9.428;2022-08-04T01:43:02;6.27;;;3.17;;
1509;SDS011;746;48.688;9.428;2022-08-04T01:45:25;3.20;;;3.00;;
1509;SDS011;746;48.688;9.428;2022-08-04T01:47:50;4.17;;;3.00;;
1509;SDS011;746;48.688;9.428;2022-08-04T01:50:13;5.07;;;3.37;;
1509;SDS011;746;48.688;9.428;2022-08-04T01:52:35;3.63;;;3.33;;
1509;SDS011;746;48.688;9.428;2022-08-04T01:54:57;4.57;;;3.23;;
1509;SDS011;746;48.688;9.428;2022-08-04T01:57:19;4.70;;;3.40;;
1509;SDS011;746;48.688;9.428;2022-08-04T01:59:58;3.80;;;3.30;;
1509;SDS011;746;48.688;9.428;2022-08-04T02:02:21;7.70;;;3.20;;
1509;SDS011;746;48.688;9.428;2022-08-04T02:04:44;3.30;;;3.10;;
1509;SDS011;746;48.688;9.428;2022-08-04T02:07:11;3.90;;;3.00;;
1509;SDS011;746;48.688;9.428;2022-08-04T02:09:38;4.23;;;3.33;;
1509;SDS011;746;48.688;9.428;2022-08-04T02:12:16;3.33;;;3.13;;
1509;SDS011;746;48.688;9.428;2022-08-04T02:14:43;3.40;;;3.20;;
1509;SDS011;746;48.688;9.428;2022-08-04T02:17:09;3.50;;;3.20;;
1509;SDS011;746;48.688;9.428;2022-08-04T02:19:32;3.50;;;3.20;;
1509;SDS011;746;48.688;9.428;2022-08-04T02:22:01;3.37;;;3.17;;
1509;SDS011;746;48.688;9.428;2022-08-04T02:24:26;3.60;;;3.30;;
1509;SDS011;746;48.688;9.428;2022-08-04T02:26:49;3.67;;;3.30;;
1509;SDS011;746;48.688;9.428;2022-08-04T02:29:12;3.60;;;3.30;;
1509;SDS011;746;48.688;9.428;2022-08-04T02:31:37;5.70;;;3.20;;
1509;SDS011;746;48.688;9.428;2022-08-04T02:34:01;4.30;;;3.27;;
1509;SDS011;746;48.688;9.428;2022-08-04T02:36:29;3.77;;;3.23;;
1509;SDS011;746;48.688;9.428;2022-08-04T02:38:57;5.80;;;3.33;;
1509;SDS011;746;48.688;9.428;2022-08-04T02:41:20;3.17;;;2.97;;
1509;SDS011;746;48.688;9.428;2022-08-04T02:43:43;5.77;;;2.90;;
1509;SDS011;746;48.688;9.428;2022-08-04T02:46:11;3.50;;;3.20;;
1509;SDS011;746;48.688;9.428;2022-08-04T02:48:37;4.07;;;3.13;;
1509;SDS011;746;48.688;9.428;2022-08-04T02:51:00;4.33;;;3.30;;
1509;SDS011;746;48.688;9.428;2022-08-04T02:53:23;5.37;;;3.10;;
1509;SDS011;746;48.688;9.428;2022-08-04T02:55:47;4.10;;;3.50;;
1509;SDS011;746;48.688;9.428;2022-08-04T02:58:13;3.73;;;3.43;;
1509;SDS011;746;48.688;9.428;2022-08-04T03:00:35;7.57;;;3.47;;
1509;SDS011;746;48.688;9.428;2022-08-04T03:03:01;3.90;;;3.50;;
1509;SDS011;746;48.688;9.428;2022-08-04T03:05:33;4.03;;;3.60;;
1509;SDS011;746;48.688;9.428;2022-08-04T03:08:36;3.63;;;3.43;;
1509;SDS011;746;48.688;9.428;2022-08-04T03:11:16;4.00;;;3.53;;
1509;SDS011;746;48.688;9.428;2022-08-04T03:14:04;4.00;;;3.60;;
1509;SDS011;746;48.688;9.428;2022-08-04T03:16:58;3.77;;;3.47;;
1509;SDS011;746;48.688;9.428;2022-08-04T03:19:38;3.83;;;3.53;;
1509;SDS011;746;48.688;9.428;2022-08-04T03:35:14;3.70;;;3.37;;
1509;SDS011;746;48.688;9.428;2022-08-04T03:40:34;3.37;;;3.10;;
1509;SDS011;746;48.688;9.428;2022-08-04T03:46:26;3.60;;;3.30;;
1509;SDS011;746;48.688;9.428;2022-08-04T03:52:12;4.10;;;3.27;;
1509;SDS011;746;48.688;9.428;2022-08-04T03:55:10;3.57;;;3.37;;
1509;SDS011;746;48.688;9.428;2022-08-04T03:57:51;3.67;;;3.40;;
1509;SDS011;746;48.688;9.428;2022-08-04T04:00:36;4.37;;;3.00;;
1509;SDS011;746;48.688;9.428;2022-08-04T04:03:09;3.63;;;3.33;;
1509;SDS011;746;48.688;9.428;2022-08-04T04:05:58;4.43;;;3.83;;
1509;SDS011;746;48.688;9.428;2022-08-04T04:08:51;5.80;;;3.50;;
1509;SDS011;746;48.688;9.428;2022-08-04T04:14:17;4.50;;;3.47;;
1509;SDS011;746;48.688;9.428;2022-08-04T04:16:55;3.63;;;3.30;;
1509;SDS011;746;48.688;9.428;2022-08-04T04:19:27;7.70;;;3.70;;
1509;SDS011;746;48.688;9.428;2022-08-04T04:21:57;4.07;;;3.67;;
1509;SDS011;746;48.688;9.428;2022-08-04T04:27:39;3.50;;;3.30;;
1509;SDS011;746;48.688;9.428;2022-08-04T04:30:10;3.97;;;3.67;;
1509;SDS011;746;48.688;9.428;2022-08-04T04:35:19;5.33;;;3.93;;
1509;SDS011;746;48.688;9.428;2022-08-04T04:37:53;4.63;;;4.10;;
1509;SDS011;746;48.688;9.428;2022-08-04T04:40:27;4.33;;;4.03;;
1509;SDS011;746;48.688;9.428;2022-08-04T04:43:05;7.17;;;3.60;;
1509;SDS011;746;48.688;9.428;2022-08-04T04:45:32;3.90;;;3.70;;
1509;SDS011;746;48.688;9.428;2022-08-04T04:47:57;3.90;;;3.60;;
1509;SDS011;746;48.688;9.428;2022-08-04T04:50:31;3.87;;;3.67;;
1509;SDS011;746;48.688;9.428;2022-08-04T04:55:41;3.80;;;3.50;;
1509;SDS011;746;48.688;9.428;2022-08-04T04:58:07;4.67;;;4.27;;
1509;SDS011;746;48.688;9.428;2022-08-04T05:00:33;4.17;;;3.87;;
1509;SDS011;746;48.688;9.428;2022-08-04T05:05:54;3.80;;;3.60;;
1509;SDS011;746;48.688;9.428;2022-08-04T05:08:33;4.77;;;4.00;;
1509;SDS011;746;48.688;9.428;2022-08-04T05:11:12;4.57;;;4.27;;
1509;SDS011;746;48.688;9.428;2022-08-04T05:13:53;4.50;;;4.20;;
1509;SDS011;746;48.688;9.428;2022-08-04T05:16:39;4.07;;;3.83;;
1509;SDS011;746;48.688;9.428;2022-08-04T05:19:03;4.20;;;3.90;;
1509;SDS011;746;48.688;9.428;2022-08-04T05:21:36;4.20;;;3.90;;
1509;SDS011;746;48.688;9.428;2022-08-04T05:24:01;5.13;;;4.60;;
1509;SDS011;746;48.688;9.428;2022-08-04T05:26:29;4.73;;;4.33;;
1509;SDS011;746;48.688;9.428;2022-08-04T05:28:52;4.33;;;4.03;;
1509;SDS011;746;48.688;9.428;2022-08-04T05:31:17;4.33;;;3.90;;
1509;SDS011;746;48.688;9.428;2022-08-04T05:33:42;4.33;;;3.80;;
1509;SDS011;746;48.688;9.428;2022-08-04T05:36:09;4.47;;;4.13;;
1509;SDS011;746;48.688;9.428;2022-08-04T05:38:47;5.40;;;4.50;;
1509;SDS011;746;48.688;9.428;2022-08-04T05:41:11;4.27;;;3.97;;
1509;SDS011;746;48.688;9.428;2022-08-04T05:43:35;4.50;;;4.10;;
1509;SDS011;746;48.688;9.428;2022-08-04T05:45:56;3.93;;;3.63;;
1509;SDS011;746;48.688;9.428;2022-08-04T05:48:19;4.03;;;3.70;;
1509;SDS011;746;48.688;9.428;2022-08-04T05:50:41;4.23;;;3.93;;
1509;SDS011;746;48.688;9.428;2022-08-04T05:53:02;4.20;;;3.80;;
1509;SDS011;746;48.688;9.428;2022-08-04T05:55:24;4.33;;;4.00;;
1509;SDS011;746;48.688;9.428;2022-08-04T05:58:06;3.90;;;3.63;;
1509;SDS011;746;48.688;9.428;2022-08-04T06:00:30;5.10;;;4.10;;
1509;SDS011;746;48.688;9.428;2022-08-04T06:03:00;3.97;;;3.77;;
1509;SDS011;746;48.688;9.428;2022-08-04T06:05:22;4.43;;;4.13;;
1509;SDS011;746;48.688;9.428;2022-08-04T06:07:45;3.90;;;3.70;;
1509;SDS011;746;48.688;9.428;2022-08-04T06:10:27;3.90;;;3.70;;
1509;SDS011;746;48.688;9.428;2022-08-04T06:12:51;4.30;;;3.90;;
1509;SDS011;746;48.688;9.428;2022-08-04T06:15:14;3.53;;;3.30;;
1509;SDS011;746;48.688;9.428;2022-08-04T06:17:47;3.90;;;3.50;;
1509;SDS011;746;48.688;9.428;2022-08-04T06:20:30;4.10;;;3.70;;
1509;SDS011;746;48.688;9.428;2022-08-04T06:22:56;3.70;;;3.40;;
1509;SDS011;746;48.688;9.428;2022-08-04T06:25:20;3.73;;;3.33;;
1509;SDS011;746;48.688;9.428;2022-08-04T06:27:44;4.60;;;3.50;;
1509;SDS011;746;48.688;9.428;2022-08-04T06:30:07;3.70;;;3.50;;
1509;SDS011;746;48.688;9.428;2022-08-04T06:32:33;3.67;;;3.37;;
1509;SDS011;746;48.688;9.428;2022-08-04T06:35:07;5.53;;;3.87;;
1509;SDS011;746;48.688;9.428;2022-08-04T06:37:30;3.47;;;3.23;;
1509;SDS011;746;48.688;9.428;2022-08-04T06:40:03;4.50;;;3.60;;
1509;SDS011;746;48.688;9.428;2022-08-04T06:42:45;5.20;;;3.43;;
1509;SDS011;746;48.688;9.428;2022-08-04T06:45:09;4.70;;;3.87;;
1509;SDS011;746;48.688;9.428;2022-08-04T06:47:31;4.20;;;3.80;;
1509;SDS011;746;48.688;9.428;2022-08-04T06:49:54;4.07;;;3.73;;
1509;SDS011;746;48.688;9.428;2022-08-04T06:52:37;4.13;;;3.80;;
1509;SDS011;746;48.688;9.428;2022-08-04T06:54:59;4.57;;;3.83;;
1509;SDS011;746;48.688;9.428;2022-08-04T06:57:21;4.30;;;3.40;;
1509;SDS011;746;48.688;9.428;2022-08-04T06:59:45;3.83;;;3.60;;
1509;SDS011;746;48.688;9.428;2022-08-04T07:02:11;4.00;;;3.80;;
1509;SDS011;746;48.688;9.428;2022-08-04T07:04:35;4.03;;;3.73;;
1509;SDS011;746;48.688;9.428;2022-08-04T07:06:56;7.47;;;4.00;;
1509;SDS011;746;48.688;9.428;2022-08-04T07:09:19;3.90;;;3.60;;
1509;SDS011;746;48.688;9.428;2022-08-04T07:11:40;4.20;;;3.40;;
1509;SDS011;746;48.688;9.428;2022-08-04T07:14:03;5.40;;;4.10;;
1509;SDS011;746;48.688;9.428;2022-08-04T07:16:26;5.00;;;3.63;;
1509;SDS011;746;48.688;9.428;2022-08-04T07:18:50;3.90;;;3.60;;
1509;SDS011;746;48.688;9.428;2022-08-04T07:21:16;3.80;;;3.50;;
1509;SDS011;746;48.688;9.428;2022-08-04T07:23:40;3.93;;;3.57;;
1509;SDS011;746;48.688;9.428;2022-08-04T07:26:03;5.60;;;3.40;;
1509;SDS011;746;48.688;9.428;2022-08-04T07:28:32;4.83;;;3.40;;
1509;SDS011;746;48.688;9.428;2022-08-04T07:30:53;3.80;;;3.37;;
1509;SDS011;746;48.688;9.428;2022-08-04T07:33:16;4.00;;;3.40;;
1509;SDS011;746;48.688;9.428;2022-08-04T07:35:38;5.97;;;3.60;;
1509;SDS011;746;48.688;9.428;2022-08-04T07:38:21;3.77;;;3.43;;
1509;SDS011;746;48.688;9.428;2022-08-04T07:40:46;3.23;;;3.03;;
1509;SDS011;746;48.688;9.428;2022-08-04T07:43:09;4.20;;;3.30;;
1509;SDS011;746;48.688;9.428;2022-08-04T07:45:31;3.87;;;3.50;;
1509;SDS011;746;48.688;9.428;2022-08-04T07:47:52;7.37;;;3.20;;
1509;SDS011;746;48.688;9.428;2022-08-04T07:50:24;3.67;;;3.30;;
1509;SDS011;746;48.688;9.428;2022-08-04T07:52:46;4.70;;;3.53;;
1509;SDS011;746;48.688;9.428;2022-08-04T07:55:28;5.07;;;3.20;;
1509;SDS011;746;48.688;9.428;2022-08-04T07:57:50;4.43;;;3.40;;
1509;SDS011;746;48.688;9.428;2022-08-04T08:00:13;5.47;;;2.97;;
1509;SDS011;746;48.688;9.428;2022-08-04T08:02:35;3.33;;;3.10;;
1509;SDS011;746;48.688;9.428;2022-08-04T08:04:57;3.97;;;3.10;;
1509;SDS011;746;48.688;9.428;2022-08-04T08:07:19;3.23;;;3.13;;
1509;SDS011;746;48.688;9.428;2022-08-04T08:09:41;3.90;;;3.20;;
1509;SDS011;746;48.688;9.428;2022-08-04T08:12:02;3.33;;;3.20;;
1509;SDS011;746;48.688;9.428;2022-08-04T08:14:45;3.30;;;3.00;;
1509;SDS011;746;48.688;9.428;2022-08-04T08:17:08;3.30;;;3.00;;
1509;SDS011;746;48.688;9.428;2022-08-04T08:19:30;4.60;;;2.83;;
1509;SDS011;746;48.688;9.428;2022-08-04T08:21:53;4.93;;;2.67;;
1509;SDS011;746;48.688;9.428;2022-08-04T08:24:19;3.10;;;2.90;;
1509;SDS011;746;48.688;9.428;2022-08-04T08:26:40;2.93;;;2.83;;
1509;SDS011;746;48.688;9.428;2022-08-04T08:29:02;3.13;;;2.90;;
1509;SDS011;746;48.688;9.428;2022-08-04T08:31:24;4.43;;;2.73;;
1509;SDS011;746;48.688;9.428;2022-08-04T08:34:07;2.70;;;2.50;;
1509;SDS011;746;48.688;9.428;2022-08-04T08:36:31;3.27;;;2.90;;
1509;SDS011;746;48.688;9.428;2022-08-04T08:38:58;2.63;;;2.53;;
1509;SDS011;746;48.688;9.428;2022-08-04T08:44:32;2.83;;;2.73;;
1509;SDS011;746;48.688;9.428;2022-08-04T08:47:18;3.43;;;2.23;;
1509;SDS011;746;48.688;9.428;2022-08-04T08:50:20;2.50;;;2.30;;
1509;SDS011;746;48.688;9.428;2022-08-04T08:53:01;3.63;;;2.50;;
1509;SDS011;746;48.688;9.428;2022-08-04T08:55:39;3.57;;;2.70;;
1509;SDS011;746;48.688;9.428;2022-08-04T08:58:09;2.50;;;2.40;;
1509;SDS011;746;48.688;9.428;2022-08-04T09:00:40;2.50;;;2.30;;
1509;SDS011;746;48.688;9.428;2022-08-04T09:06:16;3.10;;;2.80;;
1509;SDS011;746;48.688;9.428;2022-08-04T09:11:41;3.23;;;2.53;;
1509;SDS011;746;48.688;9.428;2022-08-04T09:14:07;2.60;;;2.40;;
1509;SDS011;746;48.688;9.428;2022-08-04T09:16:34;2.57;;;2.40;;
1509;SDS011;746;48.688;9.428;2022-08-04T09:18:59;5.87;;;2.93;;
1509;SDS011;746;48.688;9.428;2022-08-04T09:21:25;4.40;;;2.57;;
1509;SDS011;746;48.688;9.428;2022-08-04T09:23:56;2.70;;;2.50;;
1509;SDS011;746;48.688;9.428;2022-08-04T09:26:43;3.03;;;2.70;;
1509;SDS011;746;48.688;9.428;2022-08-04T09:29:19;4.93;;;2.90;;
1509;SDS011;746;48.688;9.428;2022-08-04T09:31:50;2.70;;;2.50;;
1509;SDS011;746;48.688;9.428;2022-08-04T09:34:30;4.07;;;2.77;;
1509;SDS011;746;48.688;9.428;2022-08-04T09:37:01;4.03;;;2.67;;
1509;SDS011;746;48.688;9.428;2022-08-04T09:39:35;3.17;;;2.80;;
1509;SDS011;746;48.688;9.428;2022-08-04T09:42:12;2.63;;;2.53;;
1509;SDS011;746;48.688;9.428;2022-08-04T09:44:47;2.63;;;2.43;;
1509;SDS011;746;48.688;9.428;2022-08-04T09:47:28;2.50;;;2.40;;
1509;SDS011;746;48.688;9.428;2022-08-04T09:50:01;4.10;;;2.23;;
1509;SDS011;746;48.688;9.428;2022-08-04T09:52:35;3.17;;;2.27;;
1509;SDS011;746;48.688;9.428;2022-08-04T09:55:11;2.90;;;2.60;;
1509;SDS011;746;48.688;9.428;2022-08-04T09:57:52;3.83;;;2.30;;
1509;SDS011;746;48.688;9.428;2022-08-04T10:00:17;3.83;;;2.60;;
1509;SDS011;746;48.688;9.428;2022-08-04T10:03:00;2.90;;;2.57;;
1509;SDS011;746;48.688;9.428;2022-08-04T10:05:22;2.40;;;2.30;;
1509;SDS011;746;48.688;9.428;2022-08-04T10:07:56;2.77;;;2.60;;
1509;SDS011;746;48.688;9.428;2022-08-04T10:10:37;2.80;;;2.60;;
1509;SDS011;746;48.688;9.428;2022-08-04T10:13:08;2.97;;;2.50;;
1509;SDS011;746;48.688;9.428;2022-08-04T10:15:43;2.50;;;2.30;;
1509;SDS011;746;48.688;9.428;2022-08-04T10:18:11;2.63;;;2.50;;
1509;SDS011;746;48.688;9.428;2022-08-04T10:20:47;2.53;;;2.30;;
1509;SDS011;746;48.688;9.428;2022-08-04T10:23:22;2.63;;;2.47;;
1509;SDS011;746;48.688;9.428;2022-08-04T10:26:14;2.80;;;2.70;;
1509;SDS011;746;48.688;9.428;2022-08-04T10:28:42;3.07;;;2.43;;
1509;SDS011;746;48.688;9.428;2022-08-04T10:31:07;2.70;;;2.60;;
1509;SDS011;746;48.688;9.428;2022-08-04T10:33:32;2.53;;;2.43;;
1509;SDS011;746;48.688;9.428;2022-08-04T10:36:03;2.90;;;2.70;;
1509;SDS011;746;48.688;9.428;2022-08-04T10:38:30;2.67;;;2.47;;
1509;SDS011;746;48.688;9.428;2022-08-04T10:41:05;2.57;;;2.47;;
1509;SDS011;746;48.688;9.428;2022-08-04T10:43:38;2.60;;;2.50;;
1509;SDS011;746;48.688;9.428;2022-08-04T10:47:03;2.70;;;2.60;;
1509;SDS011;746;48.688;9.428;2022-08-04T10:49:58;2.50;;;2.40;;
1509;SDS011;746;48.688;9.428;2022-08-04T10:52:22;3.00;;;2.77;;
1509;SDS011;746;48.688;9.428;2022-08-04T10:54:56;2.70;;;2.57;;
1509;SDS011;746;48.688;9.428;2022-08-04T10:57:29;3.10;;;2.90;;
1509;SDS011;746;48.688;9.428;2022-08-04T10:59:57;3.00;;;2.73;;
1509;SDS011;746;48.688;9.428;2022-08-04T11:02:28;2.90;;;2.70;;
1509;SDS011;746;48.688;9.428;2022-08-04T11:04:57;2.70;;;2.50;;
1509;SDS011;746;48.688;9.428;2022-08-04T11:07:20;2.80;;;2.60;;
1509;SDS011;746;48.688;9.428;2022-08-04T11:09:49;2.50;;;2.40;;
1509;SDS011;746;48.688;9.428;2022-08-04T11:12:38;3.10;;;2.90;;
1509;SDS011;746;48.688;9.428;2022-08-04T11:15:05;2.73;;;2.60;;
1509;SDS011;746;48.688;9.428;2022-08-04T11:18:16;2.43;;;2.20;;
1509;SDS011;746;48.688;9.428;2022-08-04T11:20:43;2.57;;;2.37;;
1509;SDS011;746;48.688;9.428;2022-08-04T11:23:13;2.50;;;2.40;;
1509;SDS011;746;48.688;9.428;2022-08-04T11:25:40;2.83;;;2.23;;
1509;SDS011;746;48.688;9.428;2022-08-04T11:28:14;2.33;;;2.23;;
1509;SDS011;746;48.688;9.428;2022-08-04T11:30:43;2.20;;;1.90;;
1509;SDS011;746;48.688;9.428;2022-08-04T11:33:14;2.37;;;2.20;;
1509;SDS011;746;48.688;9.428;2022-08-04T11:35:43;2.27;;;2.17;;
1509;SDS011;746;48.688;9.428;2022-08-04T11:38:08;2.50;;;2.40;;
1509;SDS011;746;48.688;9.428;2022-08-04T11:40:33;3.13;;;2.27;;
1509;SDS011;746;48.688;9.428;2022-08-04T11:43:00;2.07;;;2.00;;
1509;SDS011;746;48.688;9.428;2022-08-04T11:45:29;2.30;;;2.20;;
1509;SDS011;746;48.688;9.428;2022-08-04T11:47:53;2.40;;;2.20;;
1509;SDS011;746;48.688;9.428;2022-08-04T11:50:23;2.90;;;2.43;;
1509;SDS011;746;48.688;9.428;2022-08-04T11:53:25;2.40;;;2.30;;
1509;SDS011;746;48.688;9.428;2022-08-04T11:55:57;3.33;;;2.30;;
1509;SDS011;746;48.688;9.428;2022-08-04T11:58:30;2.37;;;2.27;;
1509;SDS011;746;48.688;9.428;2022-08-04T12:01:59;2.20;;;2.10;;
1509;SDS011;746;48.688;9.428;2022-08-04T12:04:27;2.63;;;2.40;;
1509;SDS011;746;48.688;9.428;2022-08-04T12:07:01;2.27;;;2.17;;
1509;SDS011;746;48.688;9.428;2022-08-04T12:10:23;2.70;;;2.00;;
1509;SDS011;746;48.688;9.428;2022-08-04T12:13:08;3.50;;;2.20;;
1509;SDS011;746;48.688;9.428;2022-08-04T12:15:36;3.93;;;2.20;;
1509;SDS011;746;48.688;9.428;2022-08-04T12:19:07;2.30;;;2.20;;
1509;SDS011;746;48.688;9.428;2022-08-04T12:21:55;2.30;;;2.20;;
1509;SDS011;746;48.688;9.428;2022-08-04T12:24:57;2.60;;;2.40;;
1509;SDS011;746;48.688;9.428;2022-08-04T12:28:21;2.30;;;2.20;;
1509;SDS011;746;48.688;9.428;2022-08-04T12:31:44;2.50;;;2.30;;
1509;SDS011;746;48.688;9.428;2022-08-04T12:34:59;2.30;;;2.20;;
1509;SDS011;746;48.688;9.428;2022-08-04T12:37:26;2.53;;;2.43;;
1509;SDS011;746;48.688;9.428;2022-08-04T12:39:53;2.60;;;2.40;;
1509;SDS011;746;48.688;9.428;2022-08-04T12:42:52;2.60;;;2.40;;
1509;SDS011;746;48.688;9.428;2022-08-04T12:45:54;2.33;;;2.23;;
1509;SDS011;746;48.688;9.428;2022-08-04T12:49:34;2.47;;;2.40;;
1509;SDS011;746;48.688;9.428;2022-08-04T12:52:50;2.35;;;2.25;;
1509;SDS011;746;48.688;9.428;2022-08-04T12:55:24;2.40;;;2.30;;
1509;SDS011;746;48.688;9.428;2022-08-04T12:57:46;2.50;;;2.40;;
1509;SDS011;746;48.688;9.428;2022-08-04T13:00:10;2.50;;;2.40;;
1509;SDS011;746;48.688;9.428;2022-08-04T13:02:32;2.95;;;2.40;;
1509;SDS011;746;48.688;9.428;2022-08-04T13:05:01;2.60;;;2.40;;
1509;SDS011;746;48.688;9.428;2022-08-04T13:07:45;2.15;;;2.10;;
1509;SDS011;746;48.688;9.428;2022-08-04T13:10:16;2.65;;;2.47;;
1509;SDS011;746;48.688;9.428;2022-08-04T13:12:38;3.47;;;2.30;;
1509;SDS011;746;48.688;9.428;2022-08-04T13:15:05;2.50;;;2.40;;
1509;SDS011;746;48.688;9.428;2022-08-04T13:20:23;3.17;;;2.42;;
1509;SDS011;746;48.688;9.428;2022-08-04T13:22:47;2.50;;;2.30;;
1509;SDS011;746;48.688;9.428;2022-08-04T13:25:11;2.75;;;2.65;;
1509;SDS011;746;48.688;9.428;2022-08-04T13:27:53;2.92;;;2.80;;
1509;SDS011;746;48.688;9.428;2022-08-04T13:30:16;2.50;;;2.40;;
1509;SDS011;746;48.688;9.428;2022-08-04T13:32:42;2.40;;;2.33;;
1509;SDS011;746;48.688;9.428;2022-08-04T13:35:06;2.85;;;2.60;;
1509;SDS011;746;48.688;9.428;2022-08-04T13:37:30;3.20;;;2.40;;
1509;SDS011;746;48.688;9.428;2022-08-04T13:39:59;2.63;;;2.42;;
1509;SDS011;746;48.688;9.428;2022-08-04T13:42:24;2.42;;;2.33;;
1509;SDS011;746;48.688;9.428;2022-08-04T13:44:47;3.08;;;2.70;;
1509;SDS011;746;48.688;9.428;2022-08-04T13:47:11;2.78;;;2.67;;
1509;SDS011;746;48.688;9.428;2022-08-04T13:49:35;2.60;;;2.50;;
1509;SDS011;746;48.688;9.428;2022-08-04T13:52:17;2.70;;;2.60;;
1509;SDS011;746;48.688;9.428;2022-08-04T13:54:40;2.42;;;2.30;;
1509;SDS011;746;48.688;9.428;2022-08-04T13:57:12;2.55;;;2.35;;
1509;SDS011;746;48.688;9.428;2022-08-04T13:59:37;2.67;;;2.58;;
1509;SDS011;746;48.688;9.428;2022-08-04T14:02:02;2.40;;;2.30;;
1509;SDS011;746;48.688;9.428;2022-08-04T14:04:25;2.55;;;2.30;;
1509;SDS011;746;48.688;9.428;2022-08-04T14:06:50;2.50;;;2.40;;
1509;SDS011;746;48.688;9.428;2022-08-04T14:10:15;2.33;;;2.28;;
1509;SDS011;746;48.688;9.428;2022-08-04T14:12:43;2.60;;;2.50;;
1509;SDS011;746;48.688;9.428;2022-08-04T14:15:07;2.65;;;2.50;;
1509;SDS011;746;48.688;9.428;2022-08-04T14:18:16;2.53;;;2.42;;
1509;SDS011;746;48.688;9.428;2022-08-04T14:20:40;2.60;;;2.50;;
1509;SDS011;746;48.688;9.428;2022-08-04T14:23:18;2.72;;;2.60;;
1509;SDS011;746;48.688;9.428;2022-08-04T14:25:45;2.50;;;2.40;;
1509;SDS011;746;48.688;9.428;2022-08-04T14:28:08;2.67;;;2.47;;
1509;SDS011;746;48.688;9.428;2022-08-04T14:31:48;2.90;;;2.70;;
1509;SDS011;746;48.688;9.428;2022-08-04T14:34:24;3.00;;;2.80;;
1509;SDS011;746;48.688;9.428;2022-08-04T14:36:49;2.58;;;2.47;;
1509;SDS011;746;48.688;9.428;2022-08-04T14:39:37;2.63;;;2.45;;
1509;SDS011;746;48.688;9.428;2022-08-04T14:42:38;2.45;;;2.25;;
1509;SDS011;746;48.688;9.428;2022-08-04T14:46:08;2.67;;;2.58;;
1509;SDS011;746;48.688;9.428;2022-08-04T14:48:32;2.60;;;2.40;;
1509;SDS011;746;48.688;9.428;2022-08-04T14:51:11;2.38;;;2.28;;
1509;SDS011;746;48.688;9.428;2022-08-04T14:54:32;5.78;;;2.47;;
1509;SDS011;746;48.688;9.428;2022-08-04T14:57:11;2.40;;;2.30;;
1509;SDS011;746;48.688;9.428;2022-08-04T14:59:41;2.45;;;2.35;;
1509;SDS011;746;48.688;9.428;2022-08-04T15:02:21;2.60;;;2.50;;
1509;SDS011;746;48.688;9.428;2022-08-04T15:05:02;2.95;;;2.72;;
1509;SDS011;746;48.688;9.428;2022-08-04T15:08:18;2.72;;;2.63;;
1509;SDS011;746;48.688;9.428;2022-08-04T15:10:40;2.78;;;2.60;;
1509;SDS011;746;48.688;9.428;2022-08-04T15:13:42;2.70;;;2.50;;
1509;SDS011;746;48.688;9.428;2022-08-04T15:16:05;2.90;;;2.72;;
1509;SDS011;746;48.688;9.428;2022-08-04T15:18:27;3.00;;;2.78;;
1509;SDS011;746;48.688;9.428;2022-08-04T15:20:49;2.80;;;2.60;;
1509;SDS011;746;48.688;9.428;2022-08-04T15:23:11;2.80;;;2.70;;
1509;SDS011;746;48.688;9.428;2022-08-04T15:25:33;2.88;;;2.78;;
1509;SDS011;746;48.688;9.428;2022-08-04T15:28:05;2.92;;;2.83;;
1509;SDS011;746;48.688;9.428;2022-08-04T15:30:33;2.92;;;2.78;;
1509;SDS011;746;48.688;9.428;2022-08-04T15:33:13;3.00;;;2.90;;
1509;SDS011;746;48.688;9.428;2022-08-04T15:35:48;2.80;;;2.60;;
1509;SDS011;746;48.688;9.428;2022-08-04T15:39:19;2.95;;;2.70;;
1509;SDS011;746;48.688;9.428;2022-08-04T15:41:52;2.92;;;2.83;;
1509;SDS011;746;48.688;9.428;2022-08-04T15:47:27;2.90;;;2.80;;
1509;SDS011;746;48.688;9.428;2022-08-04T15:50:23;2.75;;;2.65;;
1509;SDS011;746;48.688;9.428;2022-08-04T15:52:58;2.78;;;2.67;;
1509;SDS011;746;48.688;9.428;2022-08-04T15:55:32;2.88;;;2.67;;
1509;SDS011;746;48.688;9.428;2022-08-04T15:58:03;3.10;;;2.55;;
1509;SDS011;746;48.688;9.428;2022-08-04T16:03:40;3.58;;;2.55;;
1509;SDS011;746;48.688;9.428;2022-08-04T16:06:42;2.70;;;2.45;;
1509;SDS011;746;48.688;9.428;2022-08-04T16:13:22;2.70;;;2.60;;
1509;SDS011;746;48.688;9.428;2022-08-04T16:15:49;4.53;;;2.88;;
1509;SDS011;746;48.688;9.428;2022-08-04T16:18:38;2.60;;;2.50;;
1509;SDS011;746;48.688;9.428;2022-08-04T16:21:20;3.00;;;2.70;;
1509;SDS011;746;48.688;9.428;2022-08-04T16:24:53;2.83;;;2.63;;
1509;SDS011;746;48.688;9.428;2022-08-04T16:30:58;2.85;;;2.70;;
1509;SDS011;746;48.688;9.428;2022-08-04T16:33:58;2.88;;;2.78;;
1509;SDS011;746;48.688;9.428;2022-08-04T16:37:10;2.63;;;2.50;;
1509;SDS011;746;48.688;9.428;2022-08-04T16:39:33;2.90;;;2.40;;
1509;SDS011;746;48.688;9.428;2022-08-04T16:42:30;2.88;;;2.70;;
1509;SDS011;746;48.688;9.428;2022-08-04T16:45:16;2.92;;;2.67;;
1509;SDS011;746;48.688;9.428;2022-08-04T16:48:40;2.70;;;2.60;;
1509;SDS011;746;48.688;9.428;2022-08-04T16:51:11;2.83;;;2.63;;
1509;SDS011;746;48.688;9.428;2022-08-04T16:54:10;2.90;;;2.70;;
1509;SDS011;746;48.688;9.428;2022-08-04T16:56:43;2.73;;;2.53;;
1509;SDS011;746;48.688;9.428;2022-08-04T16:59:20;2.80;;;2.43;;
1509;SDS011;746;48.688;9.428;2022-08-04T17:01:45;3.10;;;2.47;;
1509;SDS011;746;48.688;9.428;2022-08-04T17:04:08;3.17;;;2.80;;
1509;SDS011;746;48.688;9.428;2022-08-04T17:06:44;2.83;;;2.73;;
1509;SDS011;746;48.688;9.428;2022-08-04T17:10:32;3.03;;;2.83;;
1509;SDS011;746;48.688;9.428;2022-08-04T17:13:54;3.13;;;3.03;;
1509;SDS011;746;48.688;9.428;2022-08-04T17:16:36;3.00;;;2.80;;